Time;durP1;ratioP1;P1;durP2;ratioP2;P2;SDS_P1;SDS_P2;PMS_P1;PMS_P2;Temp;Humidity;BMP_temperature;BMP_pressure;BME280_temperature;BME280_humidity;BME280_pressure;Samples;Min_cycle;Max_cycle;Signal;HPM_P1;HPM_P2
2022/08/25 00:02:18;;;;;;;;;;;;;;;14.98;86.51;98425.31;5114261;28;19980;-70
2022/08/25 00:04:43;;;;;;;;;;;;;;;14.99;85.96;98424.38;5108345;28;19912;-70
2022/08/25 00:07:09;;;;;;;;;;;;;;;14.76;85.80;98413.84;5107196;28;19912;-70
2022/08/25 00:09:35;;;;;;;;;;;;;;;14.77;86.91;98415.56;5107057;28;19908;-70
2022/08/25 00:12:00;;;;;;;;;;;;;;;14.82;86.83;98413.63;5124380;28;19923;-70
2022/08/25 00:14:27;;;;;;;;;;;;;;;14.72;86.40;98414.91;5123028;28;19912;-70
2022/08/25 00:16:53;;;;;;;;;;;;;;;14.75;86.92;98412.13;5108107;28;20204;-70
2022/08/25 00:19:21;;;;;;;;;;;;;;;14.80;87.28;98410.16;5119503;28;19919;-70
2022/08/25 00:21:46;;;;;;;;;;;;;;;14.81;87.48;98414.53;5124850;28;20208;-70
2022/08/25 00:24:12;;;;;;;;;;;;;;;14.80;87.30;98426.03;5108172;28;19919;-70
2022/08/25 00:26:42;;;;;;;;;;;;;;;14.76;87.61;98421.78;5110198;28;19923;-70
2022/08/25 00:29:08;;;;;;;;;;;;;;;14.69;87.69;98422.97;5111992;28;19919;-70
2022/08/25 00:31:33;;;;;;;;;;;;;;;14.69;87.69;98425.63;5114713;28;19971;-70
2022/08/25 00:33:59;;;;;;;;;;;;;;;14.60;87.75;98418.91;5106791;28;20127;-70
2022/08/25 00:36:27;;;;;;;;;;;;;;;14.49;87.91;98422.88;5106611;28;20204;-70
2022/08/25 00:38:52;;;;;;;;;;;;;;;14.51;88.42;98413.06;5118388;28;20223;-70
2022/08/25 00:41:19;;;;;;;;;;;;;;;14.49;88.55;98422.88;5126363;28;19957;-70
2022/08/25 00:43:51;;;;;;;;;;;;;;;14.44;88.91;98420.41;5126364;28;19915;-70
2022/08/25 00:46:22;;;;;;;;;;;;;;;14.43;89.11;98425.75;5117995;28;20192;-70
2022/08/25 00:48:49;;;;;;;;;;;;;;;14.38;88.79;98427.69;5107499;28;19949;-70
2022/08/25 00:51:18;;;;;;;;;;;;;;;14.24;88.55;98422.06;5123265;28;20141;-70
2022/08/25 00:53:43;;;;;;;;;;;;;;;14.16;89.23;98426.75;5122111;28;20208;-70
2022/08/25 00:56:09;;;;;;;;;;;;;;;14.12;89.50;98425.13;5107407;28;19919;-70
2022/08/25 00:58:34;;;;;;;;;;;;;;;14.10;89.88;98434.91;5106218;28;19912;-70
2022/08/25 01:01:00;;;;;;;;;;;;;;;14.02;90.18;98429.88;5114301;28;19948;-70
2022/08/25 01:03:26;;;;;;;;;;;;;;;13.99;90.74;98429.16;5125963;28;19912;-70
2022/08/25 01:05:53;;;;;;;;;;;;;;;14.03;90.45;98428.09;5124518;28;19911;-70
2022/08/25 01:08:21;;;;;;;;;;;;;;;14.11;90.11;98426.06;5125545;28;20245;-70
2022/08/25 01:10:48;;;;;;;;;;;;;;;14.16;90.10;98432.03;5125702;28;19958;-70
2022/08/25 01:13:19;;;;;;;;;;;;;;;14.14;89.62;98428.59;5124092;27;19918;-70
2022/08/25 01:15:45;;;;;;;;;;;;;;;14.04;90.27;98438.63;5124305;28;19949;-70
2022/08/25 01:18:10;;;;;;;;;;;;;;;14.09;90.72;98441.13;5109622;28;19919;-70
2022/08/25 01:20:36;;;;;;;;;;;;;;;14.04;90.63;98441.28;5105758;28;19912;-70
2022/08/25 01:23:01;;;;;;;;;;;;;;;14.02;90.63;98445.75;5106570;28;19983;-70
2022/08/25 01:25:36;;;;;;;;;;;;;;;13.99;90.01;98439.72;5114803;28;20325;-70
2022/08/25 01:28:01;;;;;;;;;;;;;;;13.94;90.40;98446.97;5105795;28;19911;-70
2022/08/25 01:30:26;;;;;;;;;;;;;;;13.93;90.76;98450.53;5105373;28;20223;-70
2022/08/25 01:32:52;;;;;;;;;;;;;;;13.94;90.77;98452.25;5105796;28;19916;-70
2022/08/25 01:35:17;;;;;;;;;;;;;;;13.94;91.05;98452.25;5105462;28;19915;-70
2022/08/25 01:37:43;;;;;;;;;;;;;;;13.94;90.77;98454.91;5105695;28;20029;-70
2022/08/25 01:40:08;;;;;;;;;;;;;;;13.95;90.87;98451.34;5106526;28;19979;-70
2022/08/25 01:43:12;;;;;;;;;;;;;;;13.94;91.12;98446.97;5106496;28;19975;-70
2022/08/25 01:45:39;;;;;;;;;;;;;;;13.94;90.93;98441.66;5101920;28;19935;-70
2022/08/25 01:48:06;;;;;;;;;;;;;;;13.94;91.07;98452.25;5103061;28;19919;-70
2022/08/25 01:50:31;;;;;;;;;;;;;;;13.92;91.02;98451.47;5103654;28;19920;-70
2022/08/25 01:53:06;;;;;;;;;;;;;;;13.91;91.11;98452.34;5117728;28;19908;-70
2022/08/25 01:55:50;;;;;;;;;;;;;;;13.90;90.88;98453.28;5106331;28;19912;-70
2022/08/25 01:58:16;;;;;;;;;;;;;;;13.69;90.66;98451.38;5105061;28;20208;-70
2022/08/25 02:00:43;;;;;;;;;;;;;;;13.79;91.66;98452.81;5114459;28;19907;-70
2022/08/25 02:03:09;;;;;;;;;;;;;;;13.76;91.48;98447.63;5119792;28;19912;-70
2022/08/25 02:05:34;;;;;;;;;;;;;;;13.77;91.43;98454.63;5106133;28;19915;-70
2022/08/25 02:08:00;;;;;;;;;;;;;;;13.74;91.35;98460.91;5124786;28;19919;-70
2022/08/25 02:10:26;;;;;;;;;;;;;;;13.76;91.59;98455.56;5124685;28;19944;-70
2022/08/25 02:12:51;;;;;;;;;;;;;;;13.75;91.58;98456.47;5110866;28;19912;-70
2022/08/25 02:15:16;;;;;;;;;;;;;;;13.64;90.88;98454.19;5120699;28;20245;-70
2022/08/25 02:17:42;;;;;;;;;;;;;;;13.60;91.38;98452.56;5123512;28;19979;-70
2022/08/25 02:20:08;;;;;;;;;;;;;;;13.59;91.84;98449.97;5123727;28;19907;-70
2022/08/25 02:22:33;;;;;;;;;;;;;;;13.57;92.04;98459.75;5124792;28;19912;-70
2022/08/25 02:24:58;;;;;;;;;;;;;;;13.55;91.80;98453.63;5123442;28;20159;-70
2022/08/25 02:27:24;;;;;;;;;;;;;;;13.52;92.37;98453.75;5107722;28;19948;-70
2022/08/25 02:29:49;;;;;;;;;;;;;;;13.48;92.85;98452.13;5104430;28;19949;-70
2022/08/25 02:32:14;;;;;;;;;;;;;;;13.43;92.72;98454.94;5104533;28;19923;-70
2022/08/25 02:34:40;;;;;;;;;;;;;;;13.46;92.81;98444.25;5107677;28;19943;-70
2022/08/25 02:37:05;;;;;;;;;;;;;;;13.41;91.45;98434.75;5122748;28;20141;-70
2022/08/25 02:39:31;;;;;;;;;;;;;;;13.47;91.75;98442.44;5124473;28;19911;-70
2022/08/25 02:41:56;;;;;;;;;;;;;;;13.42;91.14;98436.47;5124116;28;20137;-70
2022/08/25 02:44:21;;;;;;;;;;;;;;;13.35;91.17;98438.44;5121208;28;19919;-70
2022/08/25 02:46:47;;;;;;;;;;;;;;;13.07;93.68;98434.13;5113815;28;19912;-70
2022/08/25 02:49:12;;;;;;;;;;;;;;;13.10;93.25;98440.16;5112446;28;19912;-70
2022/08/25 02:51:38;;;;;;;;;;;;;;;13.17;93.41;98440.84;5106734;28;19915;-70
2022/08/25 02:54:04;;;;;;;;;;;;;;;13.15;93.52;98448.81;5115697;28;19915;-70
2022/08/25 02:56:30;;;;;;;;;;;;;;;13.19;93.92;98444.31;5104715;28;20081;-70
2022/08/25 02:58:55;;;;;;;;;;;;;;;13.17;93.82;98443.47;5118471;28;19935;-70
2022/08/25 03:01:21;;;;;;;;;;;;;;;13.19;94.00;98445.16;5124743;28;19908;-70
2022/08/25 03:03:47;;;;;;;;;;;;;;;13.16;93.20;98444.41;5124720;28;19908;-70
2022/08/25 03:06:14;;;;;;;;;;;;;;;13.06;93.08;98435.88;5124708;28;19908;-70
2022/08/25 03:08:40;;;;;;;;;;;;;;;13.07;93.98;98435.84;5124678;28;19949;-70
2022/08/25 03:11:06;;;;;;;;;;;;;;;12.88;94.63;98426.75;5110589;28;19975;-70
2022/08/25 03:13:31;;;;;;;;;;;;;;;12.91;95.31;98424.00;5105994;28;19908;-70
2022/08/25 03:16:00;;;;;;;;;;;;;;;12.98;94.58;98420.25;5108152;28;19908;-70
2022/08/25 03:18:26;;;;;;;;;;;;;;;12.98;93.84;98420.25;5108060;28;19908;-70
2022/08/25 03:20:51;;;;;;;;;;;;;;;13.02;94.23;98427.22;5108335;28;19915;-70
2022/08/25 03:23:16;;;;;;;;;;;;;;;12.86;94.32;98430.34;5108027;28;19908;-70
2022/08/25 03:28:26;;;;;;;;;;;;;;;12.88;94.69;98441.75;5107906;28;19915;-70
2022/08/25 03:30:52;;;;;;;;;;;;;;;12.85;95.36;98429.47;5107638;28;19932;-70
2022/08/25 03:33:17;;;;;;;;;;;;;;;12.70;94.67;98429.09;5108095;28;19908;-70
2022/08/25 03:35:42;;;;;;;;;;;;;;;12.53;95.91;98416.41;5107783;28;19912;-70
2022/08/25 03:38:08;;;;;;;;;;;;;;;12.59;96.25;98420.63;5107779;28;20104;-70
2022/08/25 03:40:33;;;;;;;;;;;;;;;12.68;96.50;98409.78;5107679;28;19908;-70
2022/08/25 03:42:58;;;;;;;;;;;;;;;12.72;95.67;98417.56;5107873;28;19908;-70
2022/08/25 03:45:24;;;;;;;;;;;;;;;12.67;95.78;98418.63;5113545;28;19911;-70
2022/08/25 03:47:50;;;;;;;;;;;;;;;12.63;95.51;98423.13;5109943;28;19943;-70
2022/08/25 03:50:16;;;;;;;;;;;;;;;12.57;96.02;98431.25;5107396;28;19915;-70
2022/08/25 03:52:42;;;;;;;;;;;;;;;12.63;96.28;98438.13;5107484;28;19926;-70
2022/08/25 03:55:08;;;;;;;;;;;;;;;12.59;95.80;98432.06;5107375;28;19919;-70
2022/08/25 03:57:34;;;;;;;;;;;;;;;12.61;96.38;98439.94;5108494;28;19978;-70
2022/08/25 03:59:59;;;;;;;;;;;;;;;12.60;95.97;98436.44;5113389;28;19911;-70
2022/08/25 04:02:24;;;;;;;;;;;;;;;12.32;95.36;98430.28;5127067;28;19916;-70
2022/08/25 04:04:50;;;;;;;;;;;;;;;12.27;96.94;98429.53;5127047;28;20215;-70
2022/08/25 04:07:15;;;;;;;;;;;;;;;12.31;97.81;98425.88;5126986;28;20122;-70
2022/08/25 04:09:41;;;;;;;;;;;;;;;12.28;96.95;98423.34;5126757;28;19912;-70
2022/08/25 04:12:06;;;;;;;;;;;;;;;12.31;97.96;98425.88;5126904;28;19920;-70
2022/08/25 04:14:31;;;;;;;;;;;;;;;12.42;97.21;98423.81;5125267;28;19916;-70
2022/08/25 04:16:57;;;;;;;;;;;;;;;12.46;96.68;98430.72;5118453;28;19950;-70
2022/08/25 04:19:22;;;;;;;;;;;;;;;12.45;96.52;98426.34;5109588;28;20085;-70
2022/08/25 04:21:47;;;;;;;;;;;;;;;12.43;96.43;98433.44;5126744;28;19949;-70
2022/08/25 04:24:13;;;;;;;;;;;;;;;12.41;97.06;98427.34;5126931;28;19918;-70
2022/08/25 04:26:41;;;;;;;;;;;;;;;12.41;96.83;98437.06;5120026;28;20157;-70
2022/08/25 04:29:08;;;;;;;;;;;;;;;12.44;97.13;98435.16;5126842;28;20107;-70
2022/08/25 04:31:34;;;;;;;;;;;;;;;12.43;96.32;98436.09;5125272;28;20211;-70
2022/08/25 04:34:02;;;;;;;;;;;;;;;12.45;96.24;98429.00;5123739;28;19958;-70
2022/08/25 04:36:28;;;;;;;;;;;;;;;12.43;95.63;98436.09;5106498;28;19915;-69
2022/08/25 04:38:53;;;;;;;;;;;;;;;12.41;95.94;98432.63;5118335;28;19918;-69
2022/08/25 04:41:20;;;;;;;;;;;;;;;12.29;95.69;98426.84;5126979;28;19949;-69
2022/08/25 04:43:45;;;;;;;;;;;;;;;12.32;96.44;98427.63;5126910;28;19949;-69
2022/08/25 04:46:12;;;;;;;;;;;;;;;12.40;96.93;98433.53;5126892;28;19912;-69
2022/08/25 04:48:41;;;;;;;;;;;;;;;12.43;96.94;98430.81;5126845;28;20204;-69
2022/08/25 04:51:07;;;;;;;;;;;;;;;12.41;96.38;98427.34;5126686;28;20136;-69
2022/08/25 04:53:33;;;;;;;;;;;;;;;12.37;96.23;98424.88;5126758;28;19908;-69
2022/08/25 04:55:59;;;;;;;;;;;;;;;12.33;96.44;98424.06;5126697;28;19950;-69
2022/08/25 04:58:24;;;;;;;;;;;;;;;12.27;97.85;98429.53;5126662;28;20199;-69
2022/08/25 05:00:49;;;;;;;;;;;;;;;12.39;97.36;98423.03;5126669;28;19908;-69
2022/08/25 05:03:15;;;;;;;;;;;;;;;12.48;96.64;98421.00;5126529;28;19915;-69
2022/08/25 05:05:40;;;;;;;;;;;;;;;12.38;96.49;98427.47;5126709;28;19907;-69
2022/08/25 05:08:05;;;;;;;;;;;;;;;12.42;96.98;98418.53;5126456;28;19998;-69
2022/08/25 05:10:32;;;;;;;;;;;;;;;12.52;96.73;98427.91;5126330;28;19911;-69
2022/08/25 05:12:57;;;;;;;;;;;;;;;12.62;96.33;98423.19;5126323;28;19912;-69
2022/08/25 05:18:06;;;;;;;;;;;;;;;13.84;92.07;98425.28;5126241;28;19949;-69
2022/08/25 05:20:34;;;;;;;;;;;;;;;14.64;87.91;98422.28;5126149;28;20204;-69
2022/08/25 05:23:00;;;;;;;;;;;;;;;15.31;83.98;98413.34;5126132;28;20238;-69
2022/08/25 05:25:25;;;;;;;;;;;;;;;15.92;80.40;98416.94;5126113;28;19908;-69
2022/08/25 05:27:50;;;;;;;;;;;;;;;16.54;78.17;98413.19;5126086;28;20152;-69
2022/08/25 05:30:16;;;;;;;;;;;;;;;17.03;75.89;98417.88;5125789;28;19947;-69
2022/08/25 05:32:41;;;;;;;;;;;;;;;17.61;73.67;98407.91;5125986;28;19912;-69
2022/08/25 05:35:06;;;;;;;;;;;;;;;17.97;71.02;98407.81;5125823;28;19916;-69
2022/08/25 05:37:32;;;;;;;;;;;;;;;18.30;70.13;98412.22;5125726;28;19908;-69
2022/08/25 05:39:58;;;;;;;;;;;;;;;18.60;69.40;98407.03;5126086;28;19939;-69
2022/08/25 05:42:23;;;;;;;;;;;;;;;19.04;67.46;98408.09;5125865;28;20200;-69
2022/08/25 05:44:49;;;;;;;;;;;;;;;19.39;66.59;98401.63;5125719;28;19908;-69
2022/08/25 05:47:15;;;;;;;;;;;;;;;19.78;64.96;98395.75;5125685;28;20200;-69
2022/08/25 05:49:40;;;;;;;;;;;;;;;20.13;63.68;98395.38;5125597;28;19915;-69
2022/08/25 05:52:05;;;;;;;;;;;;;;;20.37;63.12;98398.31;5125515;28;19908;-69
2022/08/25 05:54:30;;;;;;;;;;;;;;;20.82;62.15;98401.63;5125585;28;19975;-69
2022/08/25 05:56:56;;;;;;;;;;;;;;;21.08;61.25;98403.50;5125529;28;19945;-69
2022/08/25 05:59:21;;;;;;;;;;;;;;;21.29;60.19;98407.47;5125451;28;19914;-69
2022/08/25 06:04:31;;;;;;;;;;;;;;;21.76;58.53;98392.78;5125366;28;19945;-69
2022/08/25 06:06:56;;;;;;;;;;;;;;;21.92;58.57;98390.75;5125386;28;19978;-69
2022/08/25 06:09:21;;;;;;;;;;;;;;;22.21;58.49;98386.91;5125370;28;19995;-69
2022/08/25 06:11:47;;;;;;;;;;;;;;;23.16;56.65;98394.31;5125466;28;19979;-69
2022/08/25 06:14:12;;;;;;;;;;;;;;;23.63;54.62;98391.63;5125250;28;19915;-69
2022/08/25 06:16:38;;;;;;;;;;;;;;;23.75;54.90;98392.50;5125201;28;19908;-69
2022/08/25 06:19:04;;;;;;;;;;;;;;;24.07;55.60;98399.88;5125415;28;19931;-69
2022/08/25 06:21:29;;;;;;;;;;;;;;;24.69;54.59;98397.66;5125233;28;20254;-69
2022/08/25 06:23:55;;;;;;;;;;;;;;;25.29;55.65;98404.31;5125199;28;19908;-69
2022/08/25 06:26:20;;;;;;;;;;;;;;;26.02;53.44;98395.50;5125242;28;19907;-69
2022/08/25 06:28:45;;;;;;;;;;;;;;;26.01;52.36;98385.72;5124973;28;20085;-69
2022/08/25 06:31:11;;;;;;;;;;;;;;;26.92;52.21;98403.69;5124896;28;19937;-69
2022/08/25 06:33:36;;;;;;;;;;;;;;;27.02;51.69;98391.13;5124986;28;19908;-69
2022/08/25 06:36:01;;;;;;;;;;;;;;;27.37;51.35;98398.75;5125081;28;19988;-69
2022/08/25 06:38:27;;;;;;;;;;;;;;;27.38;51.16;98400.47;5125045;28;19907;-70
2022/08/25 06:40:52;;;;;;;;;;;;;;;27.71;50.77;98400.94;5125071;28;20017;-69
2022/08/25 06:43:18;;;;;;;;;;;;;;;28.52;49.42;98409.47;5124892;28;20219;-69
2022/08/25 06:45:43;;;;;;;;;;;;;;;28.81;49.07;98410.22;5124950;28;19953;-70
2022/08/25 06:48:09;;;;;;;;;;;;;;;29.61;46.71;98414.97;5127835;28;19930;-70
2022/08/25 06:50:38;;;;;;;;;;;;;;;28.88;48.62;98411.34;5128997;28;19978;-70
2022/08/25 06:53:03;;;;;;;;;;;;;;;30.19;46.57;98416.25;5129121;27;19983;-70
2022/08/25 06:55:28;;;;;;;;;;;;;;;29.93;46.31;98409.91;5129140;28;20192;-70
2022/08/25 06:57:54;;;;;;;;;;;;;;;29.14;48.46;98406.97;5128997;28;19907;-70
2022/08/25 07:00:19;;;;;;;;;;;;;;;30.27;45.67;98409.03;5128927;28;19914;-69
2022/08/25 07:02:45;;;;;;;;;;;;;;;30.13;46.11;98400.56;5128891;28;19939;-69
2022/08/25 07:05:11;;;;;;;;;;;;;;;30.33;45.57;98407.53;5129092;28;19914;-69
2022/08/25 07:07:36;;;;;;;;;;;;;;;30.07;46.16;98398.47;5128804;28;19908;-69
2022/08/25 07:10:02;;;;;;;;;;;;;;;30.66;45.86;98398.63;5128836;28;20211;-70
2022/08/25 07:12:27;;;;;;;;;;;;;;;30.39;45.37;98401.47;5128680;28;19934;-70
2022/08/25 07:14:53;;;;;;;;;;;;;;;30.72;44.84;98398.81;5128849;28;20199;-70
2022/08/25 07:17:18;;;;;;;;;;;;;;;30.61;45.75;98395.53;5128612;28;19945;-70
2022/08/25 07:19:44;;;;;;;;;;;;;;;30.35;45.28;98389.22;5128559;28;20103;-70
2022/08/25 07:22:09;;;;;;;;;;;;;;;30.21;46.51;98397.97;5128542;28;20103;-70
2022/08/25 07:24:34;;;;;;;;;;;;;;;30.79;44.40;98397.22;5128424;28;20088;-70
2022/08/25 07:26:59;;;;;;;;;;;;;;;29.95;45.48;98381.59;5128454;28;19942;-70
2022/08/25 07:29:26;;;;;;;;;;;;;;;30.99;44.81;98405.97;5128642;27;19975;-70
2022/08/25 07:31:51;;;;;;;;;;;;;;;32.16;43.95;98409.41;5128169;28;19978;-70
2022/08/25 07:37:03;;;;;;;;;;;;;;;32.25;42.27;98410.25;5128244;28;19937;-70
2022/08/25 07:39:29;;;;;;;;;;;;;;;32.63;42.43;98418.59;5128459;28;19908;-70
2022/08/25 07:41:54;;;;;;;;;;;;;;;31.63;42.85;98395.34;5128265;27;19908;-70
2022/08/25 07:44:20;;;;;;;;;;;;;;;32.38;41.78;98411.47;5128487;28;19971;-69
2022/08/25 07:46:47;;;;;;;;;;;;;;;32.59;41.76;98419.13;5128021;28;20192;-69
2022/08/25 07:49:12;;;;;;;;;;;;;;;32.33;41.47;98408.41;5128272;28;19908;-69
2022/08/25 07:51:37;;;;;;;;;;;;;;;32.26;41.58;98410.06;5127849;28;20271;-69
2022/08/25 07:54:03;;;;;;;;;;;;;;;31.41;42.87;98401.41;5127899;28;19949;-69
2022/08/25 07:56:28;;;;;;;;;;;;;;;30.61;44.89;98400.94;5128146;28;19916;-69
2022/08/25 07:58:54;;;;;;;;;;;;;;;32.18;42.43;98423.72;5127097;28;19907;-70
2022/08/25 08:01:21;;;;;;;;;;;;;;;31.25;42.86;98401.31;5127837;28;19978;-70
2022/08/25 08:03:46;;;;;;;;;;;;;;;32.07;42.20;98415.84;5127710;28;20196;-70
2022/08/25 08:06:15;;;;;;;;;;;;;;;31.87;41.77;98409.03;5127651;28;19953;-70
2022/08/25 08:08:43;;;;;;;;;;;;;;;31.34;42.83;98408.53;5127648;28;19949;-70
2022/08/25 08:11:19;;;;;;;;;;;;;;;31.67;42.70;98412.19;5127498;28;19919;-70
2022/08/25 08:13:46;;;;;;;;;;;;;;;31.55;42.80;98408.09;5127562;28;19915;-70
2022/08/25 08:16:13;;;;;;;;;;;;;;;32.22;41.17;98424.22;5127535;28;20108;-70
2022/08/25 08:18:38;;;;;;;;;;;;;;;32.52;40.90;98424.41;5127449;28;20001;-70
2022/08/25 08:21:04;;;;;;;;;;;;;;;31.64;41.95;98410.69;5127357;27;20203;-70
2022/08/25 08:23:29;;;;;;;;;;;;;;;31.71;42.29;98405.41;5127379;28;20159;-70
2022/08/25 08:25:55;;;;;;;;;;;;;;;32.98;39.94;98428.25;5127383;28;19908;-70
2022/08/25 08:28:20;;;;;;;;;;;;;;;33.20;40.20;98423.91;5127339;28;19912;-70
2022/08/25 08:30:46;;;;;;;;;;;;;;;33.57;39.60;98415.94;5127016;28;20139;-70
2022/08/25 08:33:11;;;;;;;;;;;;;;;33.48;38.97;98408.81;5127455;28;19939;-70
2022/08/25 08:35:36;;;;;;;;;;;;;;;32.05;41.11;98393.38;5127099;28;19908;-70
2022/08/25 08:38:01;;;;;;;;;;;;;;;32.48;40.00;98398.53;5127170;28;20252;-70
2022/08/25 08:40:28;;;;;;;;;;;;;;;33.39;39.31;98405.28;5127094;28;20096;-70
2022/08/25 08:43:17;;;;;;;;;;;;;;;33.35;39.55;98424.91;5127196;28;19930;-70
2022/08/25 08:45:47;;;;;;;;;;;;;;;31.33;41.51;98384.22;5127228;28;19915;-70
2022/08/25 08:48:31;;;;;;;;;;;;;;;32.55;40.37;98394.06;5126856;28;19942;-70
2022/08/25 08:51:03;;;;;;;;;;;;;;;32.45;39.94;98387.97;5126780;28;19958;-70
2022/08/25 08:53:38;;;;;;;;;;;;;;;32.57;39.42;98381.13;5126813;28;19949;-70
2022/08/25 08:56:12;;;;;;;;;;;;;;;33.16;39.43;98392.56;5126651;28;19914;-70
2022/08/25 08:58:46;;;;;;;;;;;;;;;32.58;39.82;98387.41;5126707;28;19908;-70
2022/08/25 09:01:14;;;;;;;;;;;;;;;32.16;41.05;98375.84;5126885;28;19914;-70
2022/08/25 09:03:42;;;;;;;;;;;;;;;32.42;39.80;98376.53;5126552;28;19915;-70
2022/08/25 09:06:10;;;;;;;;;;;;;;;32.22;40.50;98378.75;5126497;28;20096;-70
2022/08/25 09:08:37;;;;;;;;;;;;;;;32.43;39.91;98376.38;5126413;28;19929;-70
2022/08/25 09:11:08;;;;;;;;;;;;;;;32.39;39.27;98377.75;5125301;28;20231;-70
2022/08/25 09:13:33;;;;;;;;;;;;;;;32.51;39.54;98381.81;5126453;27;19912;-70
2022/08/25 09:18:52;;;;;;;;;;;;;;;32.46;39.51;98389.66;5126318;28;20214;-70
2022/08/25 09:21:23;;;;;;;;;;;;;;;32.49;39.24;98383.84;5126207;28;19908;-70
2022/08/25 09:23:57;;;;;;;;;;;;;;;32.73;38.26;98397.47;5126171;28;19914;-70
2022/08/25 09:26:26;;;;;;;;;;;;;;;32.17;38.30;98383.84;5126201;27;19914;-70
2022/08/25 09:28:59;;;;;;;;;;;;;;;31.59;39.32;98372.22;5126005;28;19908;-70
2022/08/25 09:31:25;;;;;;;;;;;;;;;32.51;39.00;98387.28;5125833;28;19916;-70
2022/08/25 09:33:55;;;;;;;;;;;;;;;32.39;38.56;98383.19;5125936;28;19939;-70
2022/08/25 09:36:21;;;;;;;;;;;;;;;31.53;39.78;98375.59;5126191;28;19970;-70
2022/08/25 09:38:46;;;;;;;;;;;;;;;31.66;39.90;98377.84;5125867;28;20219;-70
2022/08/25 09:41:15;;;;;;;;;;;;;;;31.59;40.30;98377.66;5125836;28;19943;-70
2022/08/25 09:43:41;;;;;;;;;;;;;;;31.39;39.52;98359.94;5125774;28;19908;-70
2022/08/25 09:46:14;;;;;;;;;;;;;;;31.35;39.21;98349.53;5125734;28;20226;-70
2022/08/25 09:49:09;;;;;;;;;;;;;;;32.12;38.69;98367.19;5125712;28;19908;-70
2022/08/25 09:51:38;;;;;;;;;;;;;;;31.40;39.98;98355.31;5116813;28;19949;-70
2022/08/25 09:54:13;;;;;;;;;;;;;;;31.85;39.83;98362.06;5125874;28;19907;-70
2022/08/25 09:56:55;;;;;;;;;;;;;;;32.29;39.18;98355.25;5125568;28;19937;-70
2022/08/25 09:59:22;;;;;;;;;;;;;;;32.17;38.32;98353.91;5125472;28;19921;-70
2022/08/25 10:01:51;;;;;;;;;;;;;;;32.13;39.00;98355.28;5125464;28;20103;-70
2022/08/25 10:04:27;;;;;;;;;;;;;;;32.20;39.98;98348.09;5125443;28;19908;-70
2022/08/25 10:06:52;;;;;;;;;;;;;;;32.72;39.02;98362.19;5125466;28;19914;-70
2022/08/25 10:09:25;;;;;;;;;;;;;;;32.03;38.86;98343.69;5125366;28;19908;-70
2022/08/25 10:11:51;;;;;;;;;;;;;;;32.04;38.90;98350.84;5125202;28;19912;-70
2022/08/25 10:14:27;;;;;;;;;;;;;;;32.25;38.63;98334.84;5125237;28;19908;-70
2022/08/25 10:17:09;;;;;;;;;;;;;;;32.68;37.25;98337.16;5125332;28;19950;-70
2022/08/25 10:19:34;;;;;;;;;;;;;;;32.19;37.77;98329.22;5125235;28;19907;-70
2022/08/25 10:22:08;;;;;;;;;;;;;;;32.44;37.37;98348.13;5124901;28;19945;-70
2022/08/25 10:24:34;;;;;;;;;;;;;;;32.50;38.22;98336.53;5125059;28;19908;-70
2022/08/25 10:27:06;;;;;;;;;;;;;;;32.94;38.30;98340.47;5125076;28;19950;-70
2022/08/25 10:29:37;;;;;;;;;;;;;;;34.01;36.90;98340.59;5125098;28;19904;-70
2022/08/25 10:32:05;;;;;;;;;;;;;;;33.53;36.75;98324.53;5125064;28;19970;-70
2022/08/25 10:34:39;;;;;;;;;;;;;;;33.10;36.80;98328.66;5124285;28;20296;-70
2022/08/25 10:37:20;;;;;;;;;;;;;;;32.98;37.05;98335.53;5125263;28;20130;-70
2022/08/25 10:39:51;;;;;;;;;;;;;;;33.34;36.91;98330.44;5125182;28;19907;-70
2022/08/25 10:42:28;;;;;;;;;;;;;;;33.31;36.74;98319.88;5124917;28;19915;-70
2022/08/25 10:47:54;;;;;;;;;;;;;;;32.86;36.72;98305.09;5134084;28;19914;-70
2022/08/25 10:50:19;;;;;;;;;;;;;;;33.45;36.61;98306.34;5112714;27;19908;-70
2022/08/25 10:53:08;;;;;;;;;;;;;;;33.18;36.34;98292.31;5104408;28;19908;-70
2022/08/25 10:55:38;;;;;;;;;;;;;;;33.84;35.75;98304.31;5104509;28;19912;-70
2022/08/25 10:58:09;;;;;;;;;;;;;;;33.34;36.18;98282.13;5104480;28;19946;-70
2022/08/25 11:00:42;;;;;;;;;;;;;;;32.98;37.05;98290.03;5104384;28;19915;-70
2022/08/25 11:03:31;;;;;;;;;;;;;;;33.35;36.71;98283.84;5104329;28;19908;-70
2022/08/25 11:05:56;;;;;;;;;;;;;;;33.18;36.96;98289.59;5099929;28;19908;-70
2022/08/25 11:08:41;;;;;;;;;;;;;;;32.47;36.87;98276.94;5115861;28;19995;-70
2022/08/25 11:11:11;;;;;;;;;;;;;;;31.88;37.04;98258.28;5109521;28;20204;-70
2022/08/25 11:13:46;;;;;;;;;;;;;;;32.66;36.49;98265.63;5104324;28;19915;-70
2022/08/25 11:16:14;;;;;;;;;;;;;;;32.94;36.75;98269.59;5104207;28;19908;-70
2022/08/25 11:18:44;;;;;;;;;;;;;;;32.40;36.54;98259.56;5104486;28;19908;-70
2022/08/25 11:21:16;;;;;;;;;;;;;;;32.38;37.27;98253.44;5104222;28;19908;-70
2022/08/25 11:23:48;;;;;;;;;;;;;;;31.96;38.01;98250.13;5104450;28;19915;-70
2022/08/25 11:26:16;;;;;;;;;;;;;;;31.45;39.05;98239.56;5104153;28;19923;-70
2022/08/25 11:28:56;;;;;;;;;;;;;;;32.02;38.60;98264.91;5104033;28;19912;-70
2022/08/25 11:31:22;;;;;;;;;;;;;;;32.16;37.80;98264.19;5103916;28;19938;-70
2022/08/25 11:33:48;;;;;;;;;;;;;;;31.35;38.38;98229.84;5104534;28;19954;-70
2022/08/25 11:36:27;;;;;;;;;;;;;;;31.18;38.69;98242.53;5107867;28;19908;-70
2022/08/25 11:39:11;;;;;;;;;;;;;;;30.81;39.32;98236.66;5107828;28;19908;-70
2022/08/25 11:41:54;;;;;;;;;;;;;;;30.78;39.76;98227.00;5107731;28;19947;-70
2022/08/25 11:44:25;;;;;;;;;;;;;;;31.03;39.70;98227.91;5107708;28;19914;-70
2022/08/25 11:47:04;;;;;;;;;;;;;;;30.74;39.59;98216.63;5107600;28;20005;-70
2022/08/25 11:49:36;;;;;;;;;;;;;;;30.82;39.34;98224.81;5107625;28;19949;-70
2022/08/25 11:52:02;;;;;;;;;;;;;;;31.04;38.29;98225.00;5107478;28;19912;-70
2022/08/25 11:54:28;;;;;;;;;;;;;;;30.63;39.58;98216.91;5107600;28;19907;-70
2022/08/25 11:56:57;;;;;;;;;;;;;;;30.66;40.07;98208.41;5107531;28;19911;-70
2022/08/25 11:59:40;;;;;;;;;;;;;;;30.69;40.55;98213.53;5107463;28;19915;-70
2022/08/25 12:02:06;;;;;;;;;;;;;;;30.57;40.53;98214.84;5107421;28;20149;-70
2022/08/25 12:04:40;;;;;;;;;;;;;;;30.48;40.49;98221.25;5107336;28;19908;-70
2022/08/25 12:07:05;;;;;;;;;;;;;;;30.04;40.87;98200.63;5107194;28;19908;-70
2022/08/25 12:09:31;;;;;;;;;;;;;;;30.48;41.07;98215.81;5107238;28;19950;-70
2022/08/25 12:11:57;;;;;;;;;;;;;;;30.51;40.73;98210.91;5107143;28;20115;-70
2022/08/25 12:14:23;;;;;;;;;;;;;;;30.67;41.73;98216.41;5107200;28;19914;-70
2022/08/25 12:16:54;;;;;;;;;;;;;;;30.35;41.53;98196.41;5107050;28;20204;-70
2022/08/25 12:19:22;;;;;;;;;;;;;;;30.48;41.24;98204.94;5107021;28;19945;-70
2022/08/25 12:21:48;;;;;;;;;;;;;;;30.41;41.39;98193.03;5106950;28;20138;-70
2022/08/25 12:24:15;;;;;;;;;;;;;;;30.40;40.82;98183.22;5106916;28;19908;-70
2022/08/25 12:26:47;;;;;;;;;;;;;;;30.16;40.83;98183.06;5107163;28;20192;-70
2022/08/25 12:29:13;;;;;;;;;;;;;;;30.13;40.88;98183.38;5106879;28;20135;-70
2022/08/25 12:31:58;;;;;;;;;;;;;;;30.11;41.52;98191.69;5106570;28;19916;-70
2022/08/25 12:34:35;;;;;;;;;;;;;;;29.75;42.12;98175.69;5107005;28;20219;-70
2022/08/25 12:37:03;;;;;;;;;;;;;;;29.96;41.16;98195.16;5106719;28;20106;-70
2022/08/25 12:39:36;;;;;;;;;;;;;;;29.69;40.89;98182.63;5106684;28;20112;-70
2022/08/25 12:42:04;;;;;;;;;;;;;;;29.76;40.88;98180.09;5106857;28;20188;-70
2022/08/25 12:44:34;;;;;;;;;;;;;;;29.96;40.90;98176.16;5106364;28;19965;-70
2022/08/25 12:47:23;;;;;;;;;;;;;;;29.43;40.71;98167.31;5106431;28;19912;-70
2022/08/25 12:49:48;;;;;;;;;;;;;;;29.82;41.56;98174.03;5100687;28;20119;-70
2022/08/25 12:52:18;;;;;;;;;;;;;;;29.91;41.54;98167.66;5106300;28;19918;-70
2022/08/25 12:54:48;;;;;;;;;;;;;;;30.27;41.63;98182.78;5106382;28;19912;-70
2022/08/25 12:57:20;;;;;;;;;;;;;;;30.18;40.67;98181.06;5106269;28;19908;-70
2022/08/25 12:59:49;;;;;;;;;;;;;;;30.18;41.37;98167.50;5106488;28;19915;-70
2022/08/25 13:02:17;;;;;;;;;;;;;;;30.11;40.77;98166.38;5106156;28;19994;-70
2022/08/25 13:04:51;;;;;;;;;;;;;;;29.91;41.16;98156.78;5106128;28;19914;-70
2022/08/25 13:07:22;;;;;;;;;;;;;;;29.94;40.95;98164.63;5106073;28;20154;-70
2022/08/25 13:10:10;;;;;;;;;;;;;;;29.76;41.21;98158.38;5106010;28;19950;-70